Time;durP1;ratioP1;P1;durP2;ratioP2;P2;SDS_P1;SDS_P2;PMS_P1;PMS_P2;Temp;Humidity;BMP_temperature;BMP_pressure;BME280_temperature;BME280_humidity;BME280_pressure;Samples;Min_cycle;Max_cycle;Signal;HPM_P1;HPM_P2
2022/05/30 00:03:07;;;;;;;9.70;6.30;;;;;;;9.11;82.19;98117.90;220249;1274;22569;-69
2022/05/30 00:09:01;;;;;;;11.50;6.90;;;;;;;9.10;82.49;98113.48;219813;1274;22929;-71
2022/05/30 00:21:46;;;;;;;;;;;;;;;;;;;;;
2022/05/30 00:27:38;;;;;;;10.00;5.50;;;;;;;9.02;82.92;98122.52;219858;1274;22707;-69
2022/05/30 00:33:21;;;;;;;5.70;5.00;;;;;;;9.02;83.33;98125.05;219873;1274;24237;-70
2022/05/30 00:39:52;;;;;;;7.00;5.10;;;;;;;9.02;83.64;98128.57;220031;1274;22470;-70
2022/05/30 00:51:51;;;;;;;6.50;4.40;;;;;;;8.94;83.47;98116.89;220957;1274;22586;-69
2022/05/30 00:57:31;;;;;;;5.10;3.50;;;;;;;8.90;83.49;98110.66;220932;1274;22556;-70
2022/05/30 01:02:54;;;;;;;;;;;;;;;;;;;;;
2022/05/30 01:08:02;;;;;;;3.90;3.40;;;;;;;8.79;83.88;98099.09;220121;1273;22626;-70
2022/05/30 01:13:15;;;;;;;3.90;3.50;;;;;;;8.77;84.23;98095.39;220009;1274;23327;-72
2022/05/30 01:18:35;;;;;;;4.70;3.70;;;;;;;8.71;84.04;98086.04;220916;1273;22561;-70
2022/05/30 01:24:38;;;;;;;4.10;3.60;;;;;;;8.67;84.53;98084.27;220704;1273;24225;-70
2022/05/30 01:30:32;;;;;;;5.20;3.60;;;;;;;8.64;84.40;98076.82;221079;1273;25369;-70
2022/05/30 01:36:07;;;;;;;4.20;3.30;;;;;;;8.61;84.61;98072.21;220865;1273;25464;-71
2022/05/30 01:41:10;;;;;;;3.90;3.30;;;;;;;8.61;84.71;98067.89;220866;1274;22911;-71
2022/05/30 01:46:30;;;;;;;;;;;;;;;;;;;;;
2022/05/30 01:51:48;;;;;;;4.30;3.40;;;;;;;8.54;84.86;98065.16;220618;1274;22588;-71
2022/05/30 01:57:11;;;;;;;3.60;3.30;;;;;;;8.50;84.92;98070.99;220914;1274;24357;-70
2022/05/30 02:02:25;;;;;;;4.00;3.10;;;;;;;8.50;85.09;98070.68;220749;1274;22694;-72
2022/05/30 02:07:44;;;;;;;;;;;;;;;;;;;;;
2022/05/30 02:13:09;;;;;;;2.50;2.30;;;;;;;8.49;85.40;98063.63;220468;1276;26419;-71
2022/05/30 02:18:42;;;;;;;3.10;2.60;;;;;;;8.48;85.40;98061.36;220977;1273;23026;-71
2022/05/30 02:24:20;;;;;;;3.20;2.70;;;;;;;8.46;85.52;98054.52;220856;1273;24305;-71
2022/05/30 02:29:50;;;;;;;3.80;2.50;;;;;;;8.45;85.66;98058.84;220855;1274;23124;-71
2022/05/30 02:41:01;;;;;;;3.90;2.60;;;;;;;8.43;85.73;98062.16;221163;1273;22705;-71
2022/05/30 02:46:54;;;;;;;4.20;2.50;;;;;;;8.40;85.53;98059.42;220919;1273;24228;-71
2022/05/30 02:52:15;;;;;;;3.40;2.30;;;;;;;8.36;85.75;98055.37;221128;1273;24285;-70
2022/05/30 02:58:03;;;;;;;2.90;2.20;;;;;;;8.31;85.75;98059.16;220983;1273;24688;-71
2022/05/30 03:03:19;;;;;;;4.70;3.70;;;;;;;8.25;85.83;98056.21;221077;1273;22603;-71
2022/05/30 03:08:38;;;;;;;4.70;2.60;;;;;;;8.20;85.90;98064.96;220830;1273;24399;-71
2022/05/30 03:14:04;;;;;;;3.80;2.80;;;;;;;8.16;86.00;98064.48;220928;1273;25250;-71
2022/05/30 03:19:15;;;;;;;6.30;2.80;;;;;;;8.15;86.41;98067.13;220568;1275;22528;-70
2022/05/30 03:24:42;;;;;;;4.20;3.20;;;;;;;8.13;86.17;98072.91;221148;1273;23257;-71
2022/05/30 03:29:58;;;;;;;6.10;3.00;;;;;;;8.12;86.47;98080.20;220671;1274;22892;-70
2022/05/30 03:35:01;;;;;;;3.60;2.90;;;;;;;8.11;86.43;98078.80;220613;1274;24231;-71
2022/05/30 03:40:09;;;;;;;4.10;3.10;;;;;;;8.12;86.61;98080.98;220968;1273;22591;-70
2022/05/30 03:45:42;;;;;;;5.40;3.10;;;;;;;8.14;86.87;98082.02;220852;1274;22717;-70
2022/05/30 03:50:45;;;;;;;4.50;2.90;;;;;;;8.14;86.88;98085.06;220778;1274;26368;-71
2022/05/30 03:56:14;;;;;;;2.30;2.10;;;;;;;8.14;86.91;98084.05;220804;1273;26516;-70
2022/05/30 04:01:48;;;;;;;2.70;2.50;;;;;;;8.14;87.04;98082.72;220794;1273;24724;-71
2022/05/30 04:07:04;;;;;;;3.10;2.50;;;;;;;8.18;86.97;98088.36;220422;1275;25309;-71
2022/05/30 04:12:20;;;;;;;4.30;2.40;;;;;;;8.22;86.95;98086.61;220742;1273;25255;-72
2022/05/30 04:17:53;;;;;;;2.90;2.60;;;;;;;8.29;87.20;98084.74;220911;1273;22583;-72
2022/05/30 04:23:05;;;;;;;2.70;2.30;;;;;;;8.37;87.16;98086.22;220715;1273;22710;-72
2022/05/30 04:29:21;;;;;;;3.20;2.40;;;;;;;8.45;87.07;98084.88;220718;1274;22590;-72
2022/05/30 04:34:48;;;;;;;2.50;2.30;;;;;;;8.55;86.82;98081.17;220697;1274;23293;-71
2022/05/30 04:39:53;;;;;;;4.10;2.50;;;;;;;8.64;86.76;98080.05;220850;1274;22709;-72
2022/05/30 04:46:06;;;;;;;2.40;2.20;;;;;;;8.83;87.05;98084.28;220955;1273;22948;-72
2022/05/30 04:51:35;;;;;;;;;;;;;;;9.16;87.21;98085.45;221022;1274;22882;-72
2022/05/30 04:56:55;;;;;;;3.20;2.50;;;;;;;9.48;86.95;98081.02;221052;1273;24226;-71
2022/05/30 05:02:37;;;;;;;3.70;3.40;;;;;;;9.71;86.42;98078.36;220856;1274;23412;-72
2022/05/30 05:08:49;;;;;;;4.70;4.20;;;;;;;9.89;86.01;98076.59;220708;1273;23232;-72
2022/05/30 05:14:36;;;;;;;4.40;2.50;;;;;;;10.05;85.71;98074.80;220823;1273;22552;-72
2022/05/30 05:20:54;;;;;;;4.00;2.80;;;;;;;10.19;85.29;98072.52;220476;1275;24239;-72
2022/05/30 05:26:34;;;;;;;3.40;3.10;;;;;;;10.20;84.59;98077.05;220626;1273;23358;-72
2022/05/30 05:32:25;;;;;;;;;;;;;;;;;;;;;
2022/05/30 05:38:29;;;;;;;;;;;;;;;;;;;;;
2022/05/30 05:44:01;;;;;;;2.90;2.70;;;;;;;10.02;83.73;98084.73;221095;1274;22581;-71
2022/05/30 05:50:17;;;;;;;3.60;3.30;;;;;;;9.97;83.97;98086.42;221043;1273;23316;-71
2022/05/30 05:56:16;;;;;;;4.00;2.90;;;;;;;10.06;84.19;98093.02;221159;1273;25372;-71
2022/05/30 06:01:45;;;;;;;3.60;3.10;;;;;;;10.16;84.26;98096.50;221064;1273;22539;-71
2022/05/30 06:07:25;;;;;;;3.30;2.90;;;;;;;10.23;83.88;98106.27;221583;1273;25244;-71
2022/05/30 06:13:05;;;;;;;4.60;2.90;;;;;;;10.35;83.90;98114.09;221381;1273;22578;-71
2022/05/30 06:18:10;;;;;;;4.30;3.40;;;;;;;10.59;83.98;98117.24;221028;1274;22539;-71
2022/05/30 06:23:45;;;;;;;3.80;2.60;;;;;;;10.94;83.86;98114.10;221316;1273;23200;-72
2022/05/30 06:29:40;;;;;;;3.10;2.70;;;;;;;11.22;82.78;98111.26;221016;1273;22584;-72
2022/05/30 06:35:18;;;;;;;2.30;2.10;;;;;;;11.49;82.12;98116.09;220838;1273;24325;-72
2022/05/30 06:41:18;;;;;;;3.00;1.80;;;;;;;11.69;80.99;98117.80;220594;1276;22894;-72
2022/05/30 06:46:28;;;;;;;2.60;2.10;;;;;;;11.68;80.10;98127.77;221040;1273;22996;-73
2022/05/30 06:51:55;;;;;;;2.90;2.50;;;;;;;11.61;80.01;98134.13;220603;1275;22572;-72
2022/05/30 07:02:47;;;;;;;3.70;3.00;;;;;;;11.83;80.14;98126.59;221336;1274;23020;-71
2022/05/30 07:08:31;;;;;;;3.00;2.80;;;;;;;12.18;80.15;98137.47;221388;1273;22861;-71
2022/05/30 07:13:58;;;;;;;4.30;3.10;;;;;;;12.61;79.94;98140.14;221022;1273;22523;-71
2022/05/30 07:19:07;;;;;;;5.10;3.80;;;;;;;12.74;78.23;98144.02;221170;1274;23166;-71
2022/05/30 07:24:20;;;;;;;4.10;3.70;;;;;;;12.59;76.95;98143.51;221089;1274;22592;-73
2022/05/30 07:29:42;;;;;;;2.50;2.30;;;;;;;12.34;76.88;98152.59;221495;1273;22609;-73
2022/05/30 07:35:20;;;;;;;2.60;1.70;;;;;;;12.25;77.26;98152.14;220930;1273;24201;-71
2022/05/30 07:41:10;;;;;;;1.40;1.30;;;;;;;12.34;76.71;98153.69;221367;1274;22527;-70
2022/05/30 07:46:39;;;;;;;2.30;2.10;;;;;;;12.54;75.68;98163.34;221143;1274;23122;-70
2022/05/30 07:52:05;;;;;;;;;;;;;;;;;;;;;
2022/05/30 08:10:26;;;;;;;1.70;1.60;;;;;;;12.63;73.88;98180.83;221176;1273;22588;-70
2022/05/30 08:15:55;;;;;;;4.00;1.20;;;;;;;12.76;74.74;98185.63;221067;1273;23837;-70
2022/05/30 08:21:48;;;;;;;2.10;1.50;;;;;;;13.01;73.80;98195.07;221353;1274;24737;-70
2022/05/30 08:27:22;;;;;;;4.00;2.80;;;;;;;13.11;72.80;98203.40;220665;1273;24268;-70
2022/05/30 08:32:59;;;;;;;3.40;2.40;;;;;;;13.28;73.58;98205.61;219448;1274;22763;-70
2022/05/30 08:38:39;;;;;;;7.10;6.40;;;;;;;13.38;72.56;98211.52;219353;1274;25335;-70
2022/05/30 08:44:07;;;;;;;9.10;8.20;;;;;;;13.34;72.00;98215.78;219659;1274;22554;-69
2022/05/30 08:49:57;;;;;;;10.30;9.30;;;;;;;13.62;72.28;98214.98;219672;1273;23911;-70
2022/05/30 08:55:45;;;;;;;11.60;10.20;;;;;;;13.96;71.78;98221.73;219909;1274;22654;-71
2022/05/30 09:00:59;;;;;;;9.10;8.20;;;;;;;14.22;70.54;98223.60;219562;1274;26532;-69
2022/05/30 09:06:25;;;;;;;9.00;7.80;;;;;;;14.69;70.33;98222.75;221132;1273;25942;-71
2022/05/30 09:11:40;;;;;;;6.40;5.80;;;;;;;15.14;69.00;98230.17;221001;1273;23501;-72
2022/05/30 09:17:03;;;;;;;4.60;3.80;;;;;;;15.32;67.44;98229.18;220943;1274;22478;-71
2022/05/30 09:22:38;;;;;;;4.20;3.80;;;;;;;15.43;65.09;98230.22;220940;1274;23812;-71
2022/05/30 09:28:35;;;;;;;4.00;3.60;;;;;;;15.52;65.52;98235.71;221253;1273;22592;-71
2022/05/30 09:34:20;;;;;;;3.80;3.50;;;;;;;15.51;65.39;98238.16;221130;1274;22573;-71
2022/05/30 09:39:57;;;;;;;4.50;4.10;;;;;;;15.33;64.96;98248.48;220776;1274;22457;-72
2022/05/30 09:45:24;;;;;;;8.50;7.60;;;;;;;15.05;65.44;98256.83;221072;1273;23014;-71
2022/05/30 09:51:05;;;;;;;11.20;10.10;;;;;;;14.54;65.94;98266.17;220922;1274;24347;-71
2022/05/30 09:56:41;;;;;;;10.90;9.90;;;;;;;14.21;66.99;98268.66;221262;1273;24198;-70
2022/05/30 10:02:01;;;;;;;9.40;8.20;;;;;;;14.23;67.62;98275.83;221098;1274;22553;-71
2022/05/30 10:07:23;;;;;;;12.30;11.10;;;;;;;14.51;68.00;98278.47;221411;1273;22569;-71
2022/05/30 10:19:56;;;;;;;4.70;4.30;;;;;;;15.47;66.97;98275.48;221101;1274;22701;-71
2022/05/30 10:32:27;;;;;;;4.90;4.40;;;;;;;15.84;64.87;98283.07;220781;1277;22596;-71
2022/05/30 10:38:28;;;;;;;4.50;3.70;;;;;;;15.67;64.53;98284.88;220791;1273;22590;-71
2022/05/30 10:44:24;;;;;;;3.60;3.30;;;;;;;15.59;65.32;98285.21;221096;1274;22564;-70
2022/05/30 10:50:14;;;;;;;3.20;2.90;;;;;;;15.58;65.09;98289.61;220970;1273;22824;-70
2022/05/30 10:55:50;;;;;;;3.40;2.70;;;;;;;15.43;63.95;98290.54;221042;1274;25561;-70
2022/05/30 11:01:03;;;;;;;4.30;2.60;;;;;;;15.28;64.04;98286.23;221068;1274;22535;-69
2022/05/30 11:06:47;;;;;;;4.10;3.80;;;;;;;15.20;63.96;98279.33;219550;1274;25455;-69
2022/05/30 11:12:09;;;;;;;2.90;2.50;;;;;;;15.65;65.32;98273.85;219658;1274;25905;-69
2022/05/30 11:17:40;;;;;;;;;;;;;;;;;;;;;
2022/05/30 11:23:50;;;;;;;2.40;2.20;;;;;;;16.29;62.33;98272.17;219337;1274;24114;-69
2022/05/30 11:29:45;;;;;;;1.40;1.30;;;;;;;16.47;60.92;98268.80;221282;1274;22552;-68
2022/05/30 11:35:43;;;;;;;1.70;1.50;;;;;;;16.46;59.64;98268.52;219882;1275;22990;-69
2022/05/30 11:41:44;;;;;;;1.80;1.70;;;;;;;16.43;60.89;98262.80;219614;1274;22547;-69
2022/05/30 11:47:13;;;;;;;1.80;1.40;;;;;;;16.40;60.16;98265.95;219546;1274;24320;-69
2022/05/30 11:53:24;;;;;;;2.60;1.70;;;;;;;16.36;60.04;98262.34;219877;1274;22564;-69
2022/05/30 11:59:05;;;;;;;6.00;1.90;;;;;;;16.53;59.16;98262.23;219780;1274;22653;-69
2022/05/30 12:04:28;;;;;;;1.90;1.50;;;;;;;16.45;57.43;98259.84;220877;1274;25319;-68
2022/05/30 12:10:43;;;;;;;1.80;1.50;;;;;;;16.64;58.43;98257.55;215929;1274;5331543;-68
2022/05/30 12:16:37;;;;;;;2.50;1.90;;;;;;;17.06;58.71;98255.76;219693;1273;25382;-70
2022/05/30 12:27:38;;;;;;;1.50;1.40;;;;;;;17.01;55.13;98253.38;221095;1274;25267;-69
2022/05/30 12:32:50;;;;;;;3.40;2.80;;;;;;;17.17;55.60;98250.42;219817;1274;25295;-68
2022/05/30 12:38:39;;;;;;;1.70;1.50;;;;;;;17.32;55.46;98245.17;219655;1275;22733;-69
2022/05/30 12:43:52;;;;;;;1.30;1.20;;;;;;;17.44;55.04;98243.73;219754;1274;26395;-69
2022/05/30 12:49:05;;;;;;;1.70;1.60;;;;;;;17.43;54.90;98240.60;219898;1274;22999;-69
2022/05/30 12:54:08;;;;;;;1.60;1.20;;;;;;;17.49;55.43;98235.64;219506;1273;22658;-69
2022/05/30 12:59:28;;;;;;;2.50;1.70;;;;;;;17.77;54.59;98234.89;220442;1274;25345;-68
2022/05/30 13:04:41;;;;;;;1.50;1.40;;;;;;;17.98;53.74;98231.06;219190;1274;24236;-68
2022/05/30 13:09:46;;;;;;;2.30;2.10;;;;;;;18.15;53.78;98231.10;220405;1275;24188;-68
2022/05/30 13:14:52;;;;;;;1.40;1.30;;;;;;;18.61;53.53;98234.42;219433;1274;26233;-68
2022/05/30 13:20:03;;;;;;;2.10;1.40;;;;;;;18.73;51.29;98233.38;219710;1274;22584;-68
2022/05/30 13:25:13;;;;;;;3.30;1.30;;;;;;;18.79;50.52;98229.30;219842;1274;22773;-68
2022/05/30 13:30:38;;;;;;;1.60;1.50;;;;;;;18.75;50.17;98231.09;219793;1273;25379;-67
2022/05/30 13:35:55;;;;;;;2.30;1.60;;;;;;;18.74;49.93;98230.75;219793;1274;24129;-68
2022/05/30 13:41:16;;;;;;;1.40;1.30;;;;;;;18.53;49.12;98232.64;219838;1274;22548;-67
2022/05/30 13:46:39;;;;;;;2.00;1.30;;;;;;;18.30;50.10;98230.57;219662;1274;22485;-69
2022/05/30 13:51:49;;;;;;;1.30;1.20;;;;;;;18.00;50.48;98235.15;219688;1274;24232;-68
2022/05/30 13:56:56;;;;;;;2.00;1.20;;;;;;;17.84;51.14;98234.29;219402;1276;25276;-69
2022/05/30 14:02:15;;;;;;;2.20;1.40;;;;;;;17.59;51.43;98237.59;219320;1274;22567;-67
2022/05/30 14:07:34;;;;;;;2.60;1.40;;;;;;;17.43;52.06;98241.98;219557;1274;25367;-67
2022/05/30 14:12:42;;;;;;;1.40;1.30;;;;;;;17.50;52.34;98254.77;219663;1274;22535;-67
2022/05/30 14:17:49;;;;;;;1.10;1.00;;;;;;;17.45;52.07;98261.61;219641;1275;22571;-68
2022/05/30 14:22:59;;;;;;;2.80;1.50;;;;;;;17.46;52.24;98264.90;219771;1274;25463;-68
2022/05/30 14:28:20;;;;;;;1.50;1.40;;;;;;;17.44;52.05;98265.08;219798;1274;22554;-67
2022/05/30 14:33:31;;;;;;;1.10;1.10;;;;;;;17.40;52.36;98267.04;219708;1277;22538;-68
2022/05/30 14:38:44;;;;;;;1.70;1.50;;;;;;;17.38;52.22;98266.84;219766;1274;24207;-68
2022/05/30 14:43:51;;;;;;;1.40;1.30;;;;;;;17.36;52.26;98271.42;220145;1274;25264;-68
2022/05/30 14:48:55;;;;;;;1.40;1.20;;;;;;;17.20;52.35;98273.17;220329;1274;22962;-67
2022/05/30 14:54:14;;;;;;;1.30;1.20;;;;;;;17.23;52.24;98267.84;219964;1274;23348;-68
2022/05/30 14:59:44;;;;;;;1.60;1.40;;;;;;;17.44;52.50;98269.55;219874;1275;25526;-68
2022/05/30 15:05:11;;;;;;;1.40;1.10;;;;;;;17.66;52.16;98272.98;219953;1274;22535;-68
2022/05/30 15:10:25;;;;;;;1.10;1.10;;;;;;;17.73;51.42;98277.97;220193;1275;23111;-67
2022/05/30 15:15:27;;;;;;;1.90;1.40;;;;;;;17.72;51.49;98278.86;219998;1275;22560;-67
2022/05/30 15:20:30;;;;;;;2.00;1.90;;;;;;;17.59;51.27;98275.76;219957;1275;22710;-66
2022/05/30 15:25:34;;;;;;;2.10;1.20;;;;;;;17.35;51.03;98271.70;220274;1274;22558;-67
2022/05/30 15:30:36;;;;;;;1.20;1.10;;;;;;;17.32;51.18;98273.48;220354;1274;24156;-68
2022/05/30 15:35:44;;;;;;;1.50;1.40;;;;;;;17.24;51.32;98278.85;219951;1275;22614;-66
2022/05/30 15:40:48;;;;;;;1.40;1.30;;;;;;;17.10;51.25;98283.77;220014;1275;22550;-67
2022/05/30 15:45:57;;;;;;;1.70;1.20;;;;;;;17.01;51.82;98283.84;219877;1275;24278;-67
2022/05/30 15:51:05;;;;;;;1.50;1.40;;;;;;;16.99;51.92;98289.11;219782;1275;22540;-68
2022/05/30 16:02:36;;;;;;;1.60;1.50;;;;;;;17.08;52.65;98287.14;219939;1274;24231;-67
2022/05/30 16:07:44;;;;;;;2.10;1.40;;;;;;;17.18;52.39;98298.94;219687;1275;22564;-67
2022/05/30 16:13:13;;;;;;;2.40;1.40;;;;;;;17.23;52.18;98302.25;219883;1277;22693;-66
2022/05/30 16:18:47;;;;;;;;;;;;;;;;;;;;;
2022/05/30 16:24:22;;;;;;;2.00;1.30;;;;;;;17.42;51.45;98295.40;220072;1273;22584;-67
2022/05/30 16:29:35;;;;;;;1.80;1.50;;;;;;;17.39;51.31;98296.73;220165;1274;25309;-67
2022/05/30 16:34:41;;;;;;;1.60;1.50;;;;;;;17.34;51.07;98297.29;219519;1276;23429;-67
2022/05/30 16:39:49;;;;;;;3.40;2.60;;;;;;;17.31;51.28;98304.00;220107;1274;22561;-67
2022/05/30 16:44:52;;;;;;;1.40;1.30;;;;;;;17.26;51.25;98309.60;219780;1274;25427;-67
2022/05/30 16:49:55;;;;;;;1.60;1.50;;;;;;;17.15;51.35;98309.91;220085;1274;26348;-65
2022/05/30 16:54:58;;;;;;;1.80;1.70;;;;;;;16.96;51.21;98310.08;219763;1274;24230;-66
2022/05/30 17:00:23;;;;;;;3.10;2.50;;;;;;;16.67;51.45;98317.61;219979;1274;22554;-67
2022/05/30 17:05:43;;;;;;;2.30;2.10;;;;;;;16.45;51.89;98321.94;219743;1274;22788;-66
2022/05/30 17:10:47;;;;;;;2.20;1.90;;;;;;;16.83;53.13;98330.30;219731;1274;22668;-67
2022/05/30 17:15:52;;;;;;;2.70;2.50;;;;;;;18.31;53.71;98338.70;220181;1274;23687;-67
2022/05/30 17:21:01;;;;;;;2.00;1.90;;;;;;;18.58;51.31;98352.23;220180;1273;25369;-67
2022/05/30 17:26:06;;;;;;;1.90;1.80;;;;;;;18.08;50.34;98358.60;219845;1274;26404;-66
2022/05/30 17:31:18;;;;;;;1.70;1.30;;;;;;;17.40;50.41;98357.63;219955;1274;24238;-66
2022/05/30 17:36:44;;;;;;;2.30;1.60;;;;;;;16.71;50.94;98361.93;219774;1273;25691;-67
2022/05/30 17:41:48;;;;;;;1.90;1.80;;;;;;;16.22;51.78;98364.99;219738;1274;22524;-67
2022/05/30 17:46:59;;;;;;;2.50;1.90;;;;;;;15.88;52.80;98367.64;220126;1274;22539;-67
2022/05/30 17:52:26;;;;;;;2.10;1.90;;;;;;;15.63;53.49;98362.19;219763;1275;22628;-65
2022/05/30 17:57:29;;;;;;;2.40;1.80;;;;;;;15.46;54.18;98361.91;220076;1274;22769;-67
2022/05/30 18:02:35;;;;;;;3.70;2.30;;;;;;;15.29;54.81;98348.58;220170;1274;23674;-68
2022/05/30 18:07:57;;;;;;;2.20;2.00;;;;;;;15.10;55.43;98351.04;219895;1274;24236;-67
2022/05/30 18:13:31;;;;;;;2.20;1.90;;;;;;;14.81;56.19;98358.58;220202;1274;22561;-66
2022/05/30 18:24:43;;;;;;;2.30;2.10;;;;;;;14.23;57.12;98374.04;219722;1274;22659;-67
2022/05/30 18:30:00;;;;;;;3.10;2.30;;;;;;;13.96;57.68;98375.31;219663;1274;25961;-67
2022/05/30 18:35:22;;;;;;;2.60;2.40;;;;;;;13.79;57.85;98380.21;219650;1275;25436;-66
2022/05/30 18:40:38;;;;;;;3.40;2.50;;;;;;;13.63;58.19;98390.96;220119;1274;25395;-67
2022/05/30 18:45:55;;;;;;;4.40;3.30;;;;;;;13.49;58.76;98405.98;219929;1274;22623;-66
2022/05/30 18:51:01;;;;;;;3.10;2.70;;;;;;;13.35;59.24;98430.19;219761;1274;24281;-67
2022/05/30 18:56:17;;;;;;;2.80;2.60;;;;;;;13.26;59.73;98445.05;219932;1273;22544;-67
2022/05/30 19:01:21;;;;;;;3.70;2.80;;;;;;;13.17;60.28;98459.13;219948;1274;24743;-67
2022/05/30 19:06:23;;;;;;;3.50;3.10;;;;;;;13.06;60.41;98468.46;219735;1274;22581;-66
2022/05/30 19:11:45;;;;;;;3.00;2.30;;;;;;;12.94;60.65;98457.84;219720;1274;22597;-67
2022/05/30 19:22:30;;;;;;;3.30;2.60;;;;;;;12.73;60.98;98466.36;219943;1273;22557;-67
2022/05/30 19:27:41;;;;;;;4.00;3.20;;;;;;;12.64;61.51;98471.85;220082;1274;23318;-67
2022/05/30 19:32:47;;;;;;;11.60;8.60;;;;;;;12.55;61.86;98473.96;220027;1273;22568;-67
2022/05/30 19:37:50;;;;;;;7.90;5.30;;;;;;;12.45;62.21;98485.73;219809;1274;22578;-67
2022/05/30 19:42:56;;;;;;;7.70;5.20;;;;;;;12.36;62.88;98494.18;219903;1273;24287;-67
2022/05/30 19:47:59;;;;;;;6.60;5.20;;;;;;;12.26;63.01;98493.27;220163;1273;22560;-67
2022/05/30 19:53:03;;;;;;;6.60;4.50;;;;;;;12.19;62.72;98487.05;219800;1273;26244;-67
2022/05/30 19:58:16;;;;;;;9.20;5.20;;;;;;;12.15;62.97;98482.55;219627;1274;22552;-66
2022/05/30 20:03:19;;;;;;;6.00;4.10;;;;;;;12.11;62.99;98483.73;219721;1273;22528;-67
2022/05/30 20:08:34;;;;;;;4.10;3.30;;;;;;;12.09;63.12;98494.86;219870;1273;22550;-68
2022/05/30 20:13:36;;;;;;;5.10;4.20;;;;;;;12.07;63.61;98505.91;219818;1273;24225;-66
2022/05/30 20:18:56;;;;;;;5.10;3.50;;;;;;;12.04;64.03;98516.48;219704;1273;24224;-67
2022/05/30 20:24:05;;;;;;;6.30;3.60;;;;;;;12.00;64.39;98514.94;219640;1273;24833;-67
2022/05/30 20:29:11;;;;;;;6.20;4.30;;;;;;;11.97;64.81;98514.53;219803;1273;22569;-67
2022/05/30 20:34:27;;;;;;;4.20;3.80;;;;;;;11.95;64.94;98507.86;219898;1274;22869;-66
2022/05/30 20:39:32;;;;;;;4.70;3.70;;;;;;;11.96;65.20;98515.79;219726;1274;25244;-67
2022/05/30 20:44:53;;;;;;;5.80;4.30;;;;;;;11.92;65.20;98522.55;219872;1274;22559;-67
2022/05/30 20:50:05;;;;;;;7.90;6.90;;;;;;;11.91;65.94;98532.14;219494;1274;22643;-66
2022/05/30 20:55:20;;;;;;;4.90;4.40;;;;;;;11.91;66.38;98539.13;219674;1274;25489;-66
2022/05/30 21:00:45;;;;;;;4.30;3.90;;;;;;;11.92;66.88;98545.05;219483;1274;25256;-67
2022/05/30 21:05:54;;;;;;;4.70;4.10;;;;;;;11.90;67.12;98560.61;219703;1274;22633;-67
2022/05/30 21:11:19;;;;;;;;;;;;;;;;;;;;;
2022/05/30 21:16:36;;;;;;;5.90;4.60;;;;;;;11.81;66.94;98568.69;219659;1273;22613;-66
2022/05/30 21:21:58;;;;;;;6.80;5.20;;;;;;;11.77;67.19;98574.23;220004;1274;24158;-66
2022/05/30 21:27:35;;;;;;;12.40;7.30;;;;;;;11.72;67.51;98591.04;219865;1273;24492;-66
2022/05/30 21:32:57;;;;;;;10.00;7.60;;;;;;;11.64;68.54;98610.52;220036;1273;22708;-67
2022/05/30 21:39:12;;;;;;;7.80;5.70;;;;;;;11.55;69.89;98646.43;219976;1274;22554;-65
2022/05/30 21:44:58;;;;;;;9.10;5.00;;;;;;;11.29;70.66;98663.91;219697;1274;22569;-66
2022/05/30 21:50:57;;;;;;;6.10;4.80;;;;;;;11.14;71.01;98668.19;219506;1273;22535;-66
2022/05/30 22:02:21;;;;;;;5.60;4.80;;;;;;;10.92;72.70;98639.75;219215;1274;25325;-67
2022/05/30 22:07:57;;;;;;;5.40;4.90;;;;;;;10.86;72.92;98620.52;219281;1274;22560;-66
2022/05/30 22:13:24;;;;;;;4.80;4.40;;;;;;;10.83;73.31;98610.88;219631;1274;22550;-67
2022/05/30 22:18:28;;;;;;;5.60;4.50;;;;;;;10.79;73.74;98614.78;219480;1274;22478;-67
2022/05/30 22:23:45;;;;;;;4.70;4.20;;;;;;;10.76;74.16;98622.23;219876;1274;22586;-66
2022/05/30 22:29:05;;;;;;;5.10;4.60;;;;;;;10.66;74.34;98614.09;219390;1274;25582;-66
2022/05/30 22:34:08;;;;;;;5.50;4.90;;;;;;;10.54;74.51;98602.12;219322;1274;26383;-67
2022/05/30 22:39:13;;;;;;;6.40;5.40;;;;;;;10.42;74.64;98587.84;219696;1273;22561;-67
2022/05/30 22:44:31;;;;;;;6.10;5.50;;;;;;;10.37;74.87;98593.33;220145;1274;25367;-67
2022/05/30 22:49:43;;;;;;;6.80;5.30;;;;;;;10.37;75.21;98604.56;219617;1273;22553;-66
2022/05/30 22:55:10;;;;;;;5.40;4.90;;;;;;;10.42;76.37;98610.98;219643;1273;24225;-66
2022/05/30 23:00:17;;;;;;;5.80;5.30;;;;;;;10.46;77.23;98608.30;219830;1274;22572;-66
2022/05/30 23:05:22;;;;;;;6.20;5.60;;;;;;;10.47;77.54;98606.67;219993;1274;25425;-66
2022/05/30 23:10:32;;;;;;;7.20;6.30;;;;;;;10.47;77.98;98610.75;219795;1273;22593;-68
2022/05/30 23:15:46;;;;;;;6.60;5.90;;;;;;;10.46;78.06;98616.06;219584;1274;22563;-66
2022/05/30 23:21:39;;;;;;;6.50;5.80;;;;;;;10.48;78.29;98629.63;219663;1274;22564;-66
2022/05/30 23:27:17;;;;;;;5.80;5.10;;;;;;;10.49;78.47;98644.25;220003;1274;25354;-67
2022/05/30 23:32:40;;;;;;;7.10;5.80;;;;;;;10.49;78.64;98675.26;219477;1273;22586;-67
2022/05/30 23:38:53;;;;;;;7.70;6.10;;;;;;;10.45;78.60;98706.11;220147;1273;25257;-66
2022/05/30 23:49:28;;;;;;;6.00;5.40;;;;;;;10.27;78.34;98703.64;219274;1276;25446;-66
2022/05/30 23:54:31;;;;;;;6.30;5.70;;;;;;;10.18;78.50;98708.85;219572;1274;22532;-66
2022/05/30 23:59:37;;;;;;;7.90;6.80;;;;;;;10.05;78.70;98707.02;219597;1273;22747;-66
